Campbell, Minnesota
Current Conditions -  °F | °C
As of 8:35 AM on Thursday 30 Oct 2014 (Local Time) from KBWP Reporting Station
Overcast Overcast  
Wind Chill: 32°   Ceiling: 2000
Heat Index: 37°   Visibility: 7mi
Dew Point: 36°   Wind: 7mph
Humidity: 93%   Direction: 30°NNE
Pressure: 30.09"   Gusts: NA
Location:  46.1°N, 96.4°W
Report Text: KBWP 301335Z AUTO 03006KT 7SM BKN020 OVC029 03/02 A3009 RMK AO1
Loading
Personal Weather Stations






























Interactive Weather Map
Tropical Storm Tracking
New forecast layout! Learn more

10-Day Weather Forecast

Advertisements
Track Severe Weather on mobile